sensor_id;sensor_type;location;lat;lon;timestamp;pressure;altitude;pressure_sealevel;temperature;humidity
77013;BME280;67260;53.130;17.982;2023-03-01T00:00:01;102652.83;;;-3.08;72.62
77013;BME280;67260;53.130;17.982;2023-03-01T00:02:27;102656.36;;;-3.06;72.59
77013;BME280;67260;53.130;17.982;2023-03-01T00:04:54;102656.57;;;-3.03;72.59
77013;BME280;67260;53.130;17.982;2023-03-01T00:07:21;102659.17;;;-3.00;72.47
77013;BME280;67260;53.130;17.982;2023-03-01T00:09:47;102659.36;;;-2.96;72.72
77013;BME280;67260;53.130;17.982;2023-03-01T00:12:14;102661.97;;;-2.92;72.62
77013;BME280;67260;53.130;17.982;2023-03-01T00:14:41;102659.12;;;-2.91;72.50
77013;BME280;67260;53.130;17.982;2023-03-01T00:17:07;102656.82;;;-2.90;72.68
77013;BME280;67260;53.130;17.982;2023-03-01T00:19:34;102656.83;;;-2.90;72.52
77013;BME280;67260;53.130;17.982;2023-03-01T00:22:01;102657.94;;;-2.92;72.62
77013;BME280;67260;53.130;17.982;2023-03-01T00:24:28;102656.59;;;-2.96;72.38
77013;BME280;67260;53.130;17.982;2023-03-01T00:26:55;102648.79;;;-3.00;72.72
77013;BME280;67260;53.130;17.982;2023-03-01T00:29:24;102637.61;;;-3.02;72.39
77013;BME280;67260;53.130;17.982;2023-03-01T00:31:51;102639.41;;;-3.03;72.64
77013;BME280;67260;53.130;17.982;2023-03-01T00:34:17;102632.47;;;-3.07;72.81
77013;BME280;67260;53.130;17.982;2023-03-01T00:36:44;102627.41;;;-3.13;73.14
77013;BME280;67260;53.130;17.982;2023-03-01T00:39:13;102628.10;;;-3.20;72.95
77013;BME280;67260;53.130;17.982;2023-03-01T00:41:41;102627.48;;;-3.25;73.24
77013;BME280;67260;53.130;17.982;2023-03-01T00:44:09;102625.48;;;-3.31;73.08
77013;BME280;67260;53.130;17.982;2023-03-01T00:46:36;102628.67;;;-3.37;73.41
77013;BME280;67260;53.130;17.982;2023-03-01T00:49:03;102628.28;;;-3.40;73.05
77013;BME280;67260;53.130;17.982;2023-03-01T00:51:31;102621.29;;;-3.41;72.90
77013;BME280;67260;53.130;17.982;2023-03-01T00:54:00;102623.46;;;-3.40;72.81
77013;BME280;67260;53.130;17.982;2023-03-01T00:56:28;102621.22;;;-3.36;72.81
77013;BME280;67260;53.130;17.982;2023-03-01T00:58:55;102619.09;;;-3.31;73.22
77013;BME280;67260;53.130;17.982;2023-03-01T01:01:26;102615.56;;;-3.26;72.92
77013;BME280;67260;53.130;17.982;2023-03-01T01:04:01;102615.80;;;-3.20;73.15
77013;BME280;67260;53.130;17.982;2023-03-01T01:06:40;102614.80;;;-3.17;73.12
77013;BME280;67260;53.130;17.982;2023-03-01T01:09:11;102608.85;;;-3.16;73.11
77013;BME280;67260;53.130;17.982;2023-03-01T01:11:49;102607.00;;;-3.17;73.17
77013;BME280;67260;53.130;17.982;2023-03-01T01:14:18;102602.23;;;-3.19;73.14
77013;BME280;67260;53.130;17.982;2023-03-01T01:16:45;102597.80;;;-3.20;73.22
77013;BME280;67260;53.130;17.982;2023-03-01T01:19:12;102593.92;;;-3.22;72.80
77013;BME280;67260;53.130;17.982;2023-03-01T01:21:40;102590.69;;;-3.24;72.96
77013;BME280;67260;53.130;17.982;2023-03-01T01:24:09;102584.82;;;-3.28;72.73
77013;BME280;67260;53.130;17.982;2023-03-01T01:26:37;102586.63;;;-3.34;73.10
77013;BME280;67260;53.130;17.982;2023-03-01T01:29:05;102582.89;;;-3.39;72.98
77013;BME280;67260;53.130;17.982;2023-03-01T01:31:33;102574.83;;;-3.45;72.98
77013;BME280;67260;53.130;17.982;2023-03-01T01:34:03;102574.54;;;-3.49;73.17
77013;BME280;67260;53.130;17.982;2023-03-01T01:36:30;102574.77;;;-3.54;73.15
77013;BME280;67260;53.130;17.982;2023-03-01T01:38:57;102570.27;;;-3.58;73.16
77013;BME280;67260;53.130;17.982;2023-03-01T01:41:25;102564.86;;;-3.61;73.38
77013;BME280;67260;53.130;17.982;2023-03-01T01:52:25;102550.25;;;-3.56;73.93
77013;BME280;67260;53.130;17.982;2023-03-01T01:57:30;102551.77;;;-3.51;73.83
77013;BME280;67260;53.130;17.982;2023-03-01T02:00:05;102549.09;;;-3.49;73.93
77013;BME280;67260;53.130;17.982;2023-03-01T02:02:41;102541.30;;;-3.46;73.82
77013;BME280;67260;53.130;17.982;2023-03-01T02:05:21;102541.52;;;-3.40;73.55
77013;BME280;67260;53.130;17.982;2023-03-01T02:07:50;102537.02;;;-3.36;73.60
77013;BME280;67260;53.130;17.982;2023-03-01T02:10:23;102546.00;;;-3.32;73.17
77013;BME280;67260;53.130;17.982;2023-03-01T02:12:51;102544.52;;;-3.30;73.38
77013;BME280;67260;53.130;17.982;2023-03-01T02:15:18;102542.89;;;-3.28;73.17
77013;BME280;67260;53.130;17.982;2023-03-01T02:17:45;102544.02;;;-3.26;73.59
77013;BME280;67260;53.130;17.982;2023-03-01T02:23:30;102549.19;;;-3.29;73.50
77013;BME280;67260;53.130;17.982;2023-03-01T02:26:10;102553.31;;;-3.29;73.60
77013;BME280;67260;53.130;17.982;2023-03-01T02:28:42;102550.77;;;-3.30;73.65
77013;BME280;67260;53.130;17.982;2023-03-01T02:31:14;102545.98;;;-3.32;73.59
77013;BME280;67260;53.130;17.982;2023-03-01T02:34:01;102543.98;;;-3.33;73.42
77013;BME280;67260;53.130;17.982;2023-03-01T02:36:39;102542.30;;;-3.34;73.79
77013;BME280;67260;53.130;17.982;2023-03-01T02:39:08;102539.60;;;-3.35;73.70
77013;BME280;67260;53.130;17.982;2023-03-01T02:41:44;102535.60;;;-3.39;73.70
77013;BME280;67260;53.130;17.982;2023-03-01T02:44:13;102533.12;;;-3.41;73.36
77013;BME280;67260;53.130;17.982;2023-03-01T02:46:43;102525.36;;;-3.45;73.77
77013;BME280;67260;53.130;17.982;2023-03-01T02:49:29;102525.67;;;-3.45;73.59
77013;BME280;67260;53.130;17.982;2023-03-01T02:55:07;102522.69;;;-3.44;73.42
77013;BME280;67260;53.130;17.982;2023-03-01T02:57:37;102522.38;;;-3.41;73.51
77013;BME280;67260;53.130;17.982;2023-03-01T03:00:11;102523.65;;;-3.39;73.75
77013;BME280;67260;53.130;17.982;2023-03-01T03:02:47;102522.52;;;-3.41;73.43
77013;BME280;67260;53.130;17.982;2023-03-01T03:05:23;102515.23;;;-3.41;73.32
77013;BME280;67260;53.130;17.982;2023-03-01T03:07:53;102519.72;;;-3.40;73.45
77013;BME280;67260;53.130;17.982;2023-03-01T03:10:29;102524.36;;;-3.39;73.57
77013;BME280;67260;53.130;17.982;2023-03-01T03:13:13;102519.70;;;-3.40;73.18
77013;BME280;67260;53.130;17.982;2023-03-01T03:15:41;102516.41;;;-3.39;73.47
77013;BME280;67260;53.130;17.982;2023-03-01T03:18:12;102521.02;;;-3.41;73.26
77013;BME280;67260;53.130;17.982;2023-03-01T03:20:40;102515.30;;;-3.45;73.30
77013;BME280;67260;53.130;17.982;2023-03-01T03:23:08;102513.02;;;-3.48;73.40
77013;BME280;67260;53.130;17.982;2023-03-01T03:25:35;102508.95;;;-3.50;73.43
77013;BME280;67260;53.130;17.982;2023-03-01T03:28:06;102508.14;;;-3.51;73.34
77013;BME280;67260;53.130;17.982;2023-03-01T03:30:38;102502.56;;;-3.54;73.35
77013;BME280;67260;53.130;17.982;2023-03-01T03:33:06;102498.42;;;-3.55;73.38
77013;BME280;67260;53.130;17.982;2023-03-01T03:35:53;102491.17;;;-3.55;73.40
77013;BME280;67260;53.130;17.982;2023-03-01T03:38:20;102485.98;;;-3.55;73.57
77013;BME280;67260;53.130;17.982;2023-03-01T03:40:52;102485.52;;;-3.56;73.63
77013;BME280;67260;53.130;17.982;2023-03-01T03:43:21;102484.19;;;-3.57;73.67
77013;BME280;67260;53.130;17.982;2023-03-01T03:45:50;102481.00;;;-3.60;73.86
77013;BME280;67260;53.130;17.982;2023-03-01T03:48:18;102475.29;;;-3.60;73.84
77013;BME280;67260;53.130;17.982;2023-03-01T03:50:51;102474.72;;;-3.59;73.78
77013;BME280;67260;53.130;17.982;2023-03-01T03:53:18;102473.17;;;-3.55;73.97
77013;BME280;67260;53.130;17.982;2023-03-01T03:55:45;102470.94;;;-3.52;73.86
77013;BME280;67260;53.130;17.982;2023-03-01T03:58:16;102471.98;;;-3.49;73.84
77013;BME280;67260;53.130;17.982;2023-03-01T04:00:47;102476.04;;;-3.43;73.84
77013;BME280;67260;53.130;17.982;2023-03-01T04:03:15;102479.05;;;-3.37;73.83
77013;BME280;67260;53.130;17.982;2023-03-01T04:05:42;102479.25;;;-3.34;73.87
77013;BME280;67260;53.130;17.982;2023-03-01T04:08:09;102482.11;;;-3.32;73.71
77013;BME280;67260;53.130;17.982;2023-03-01T04:10:39;102480.89;;;-3.32;73.86
77013;BME280;67260;53.130;17.982;2023-03-01T04:13:11;102488.20;;;-3.33;73.82
77013;BME280;67260;53.130;17.982;2023-03-01T04:15:38;102487.11;;;-3.35;73.91
77013;BME280;67260;53.130;17.982;2023-03-01T04:18:06;102486.11;;;-3.40;73.92
77013;BME280;67260;53.130;17.982;2023-03-01T04:20:35;102487.86;;;-3.44;74.07
77013;BME280;67260;53.130;17.982;2023-03-01T04:23:05;102489.59;;;-3.47;74.14
77013;BME280;67260;53.130;17.982;2023-03-01T04:25:42;102486.40;;;-3.46;74.24
77013;BME280;67260;53.130;17.982;2023-03-01T04:28:11;102491.17;;;-3.44;74.38
77013;BME280;67260;53.130;17.982;2023-03-01T04:30:39;102492.41;;;-3.45;74.46
77013;BME280;67260;53.130;17.982;2023-03-01T04:33:07;102495.50;;;-3.44;74.32
77013;BME280;67260;53.130;17.982;2023-03-01T04:35:35;102488.98;;;-3.42;74.18
77013;BME280;67260;53.130;17.982;2023-03-01T04:38:03;102476.27;;;-3.40;74.10
77013;BME280;67260;53.130;17.982;2023-03-01T04:40:32;102467.91;;;-3.40;74.07
77013;BME280;67260;53.130;17.982;2023-03-01T04:42:58;102469.57;;;-3.38;74.05
77013;BME280;67260;53.130;17.982;2023-03-01T04:45:25;102468.15;;;-3.37;74.25
77013;BME280;67260;53.130;17.982;2023-03-01T04:47:54;102466.04;;;-3.33;74.23
77013;BME280;67260;53.130;17.982;2023-03-01T04:50:24;102467.39;;;-3.28;74.21
77013;BME280;67260;53.130;17.982;2023-03-01T04:52:52;102468.64;;;-3.26;74.28
77013;BME280;67260;53.130;17.982;2023-03-01T04:55:19;102465.72;;;-3.23;74.09
77013;BME280;67260;53.130;17.982;2023-03-01T04:57:46;102456.89;;;-3.19;74.02
77013;BME280;67260;53.130;17.982;2023-03-01T05:00:14;102459.31;;;-3.13;73.83
77013;BME280;67260;53.130;17.982;2023-03-01T05:02:57;102455.72;;;-3.11;73.79
77013;BME280;67260;53.130;17.982;2023-03-01T05:05:32;102453.48;;;-3.14;73.80
77013;BME280;67260;53.130;17.982;2023-03-01T05:08:01;102458.79;;;-3.16;73.79
77013;BME280;67260;53.130;17.982;2023-03-01T05:10:31;102460.25;;;-3.17;73.85
77013;BME280;67260;53.130;17.982;2023-03-01T05:12:59;102459.46;;;-3.19;73.94
77013;BME280;67260;53.130;17.982;2023-03-01T05:15:28;102467.84;;;-3.20;73.90
77013;BME280;67260;53.130;17.982;2023-03-01T05:17:56;102470.02;;;-3.26;73.87
77013;BME280;67260;53.130;17.982;2023-03-01T05:20:29;102472.60;;;-3.33;73.84
77013;BME280;67260;53.130;17.982;2023-03-01T05:22:58;102473.60;;;-3.39;73.87
77013;BME280;67260;53.130;17.982;2023-03-01T05:25:26;102472.87;;;-3.45;73.83
77013;BME280;67260;53.130;17.982;2023-03-01T05:27:53;102467.73;;;-3.50;74.14
77013;BME280;67260;53.130;17.982;2023-03-01T05:30:20;102467.32;;;-3.52;74.32
77013;BME280;67260;53.130;17.982;2023-03-01T05:32:49;102461.67;;;-3.54;74.43
77013;BME280;67260;53.130;17.982;2023-03-01T05:35:22;102460.45;;;-3.57;74.40
77013;BME280;67260;53.130;17.982;2023-03-01T05:37:49;102460.96;;;-3.60;74.40
77013;BME280;67260;53.130;17.982;2023-03-01T05:40:21;102460.67;;;-3.62;74.50
77013;BME280;67260;53.130;17.982;2023-03-01T05:42:56;102457.89;;;-3.62;74.58
77013;BME280;67260;53.130;17.982;2023-03-01T05:45:25;102459.73;;;-3.60;74.57
77013;BME280;67260;53.130;17.982;2023-03-01T05:47:53;102459.64;;;-3.58;74.48
77013;BME280;67260;53.130;17.982;2023-03-01T05:50:34;102460.13;;;-3.54;74.43
77013;BME280;67260;53.130;17.982;2023-03-01T05:53:04;102457.27;;;-3.49;74.43
77013;BME280;67260;53.130;17.982;2023-03-01T05:55:35;102459.23;;;-3.46;74.50
77013;BME280;67260;53.130;17.982;2023-03-01T05:58:05;102459.86;;;-3.45;74.61
77013;BME280;67260;53.130;17.982;2023-03-01T06:00:33;102463.23;;;-3.43;74.62
77013;BME280;67260;53.130;17.982;2023-03-01T06:03:00;102466.11;;;-3.42;74.66
77013;BME280;67260;53.130;17.982;2023-03-01T06:05:27;102462.53;;;-3.39;74.67
77013;BME280;67260;53.130;17.982;2023-03-01T06:07:55;102469.18;;;-3.37;74.63
77013;BME280;67260;53.130;17.982;2023-03-01T06:10:22;102464.02;;;-3.34;74.42
77013;BME280;67260;53.130;17.982;2023-03-01T06:12:49;102463.48;;;-3.30;74.65
77013;BME280;67260;53.130;17.982;2023-03-01T06:15:16;102463.88;;;-3.28;74.55
77013;BME280;67260;53.130;17.982;2023-03-01T06:17:44;102469.34;;;-3.26;74.69
77013;BME280;67260;53.130;17.982;2023-03-01T06:20:17;102472.14;;;-3.23;74.63
77013;BME280;67260;53.130;17.982;2023-03-01T06:22:45;102470.77;;;-3.20;74.38
77013;BME280;67260;53.130;17.982;2023-03-01T06:25:15;102474.70;;;-3.12;74.64
77013;BME280;67260;53.130;17.982;2023-03-01T06:27:43;102477.91;;;-3.00;74.44
77013;BME280;67260;53.130;17.982;2023-03-01T06:30:12;102479.44;;;-2.86;74.25
77013;BME280;67260;53.130;17.982;2023-03-01T06:32:41;102478.78;;;-2.73;74.16
77013;BME280;67260;53.130;17.982;2023-03-01T06:35:13;102479.58;;;-2.65;74.12
77013;BME280;67260;53.130;17.982;2023-03-01T06:37:41;102478.48;;;-2.56;74.02
77013;BME280;67260;53.130;17.982;2023-03-01T06:40:09;102480.72;;;-2.43;73.86
77013;BME280;67260;53.130;17.982;2023-03-01T06:42:39;102478.06;;;-2.25;73.85
77013;BME280;67260;53.130;17.982;2023-03-01T06:45:07;102481.89;;;-2.03;73.54
77013;BME280;67260;53.130;17.982;2023-03-01T06:47:34;102483.86;;;-1.85;73.11
77013;BME280;67260;53.130;17.982;2023-03-01T06:50:01;102484.99;;;-1.71;72.75
77013;BME280;67260;53.130;17.982;2023-03-01T06:52:28;102484.85;;;-1.62;72.33
77013;BME280;67260;53.130;17.982;2023-03-01T06:54:55;102483.27;;;-1.55;72.23
77013;BME280;67260;53.130;17.982;2023-03-01T06:57:22;102482.31;;;-1.50;72.22
77013;BME280;67260;53.130;17.982;2023-03-01T06:59:49;102477.96;;;-1.50;72.43
77013;BME280;67260;53.130;17.982;2023-03-01T07:02:16;102470.52;;;-1.51;72.12
77013;BME280;67260;53.130;17.982;2023-03-01T07:04:42;102468.14;;;-1.52;71.66
77013;BME280;67260;53.130;17.982;2023-03-01T07:07:09;102466.38;;;-1.55;71.70
77013;BME280;67260;53.130;17.982;2023-03-01T07:09:36;102466.84;;;-1.56;71.72
77013;BME280;67260;53.130;17.982;2023-03-01T07:12:03;102460.52;;;-1.55;71.96
77013;BME280;67260;53.130;17.982;2023-03-01T07:14:29;102458.56;;;-1.52;71.98
77013;BME280;67260;53.130;17.982;2023-03-01T07:16:56;102459.30;;;-1.47;72.03
77013;BME280;67260;53.130;17.982;2023-03-01T07:19:23;102462.90;;;-1.42;72.00
77013;BME280;67260;53.130;17.982;2023-03-01T07:21:50;102459.52;;;-1.38;72.14
77013;BME280;67260;53.130;17.982;2023-03-01T07:24:17;102450.80;;;-1.31;72.04
77013;BME280;67260;53.130;17.982;2023-03-01T07:26:43;102443.89;;;-1.23;71.93
77013;BME280;67260;53.130;17.982;2023-03-01T07:29:10;102443.81;;;-1.15;72.23
77013;BME280;67260;53.130;17.982;2023-03-01T07:31:37;102443.00;;;-1.07;72.09
77013;BME280;67260;53.130;17.982;2023-03-01T07:34:04;102443.71;;;-0.99;71.75
77013;BME280;67260;53.130;17.982;2023-03-01T07:36:30;102444.59;;;-0.90;71.60
77013;BME280;67260;53.130;17.982;2023-03-01T07:38:57;102444.97;;;-0.82;71.72
77013;BME280;67260;53.130;17.982;2023-03-01T07:41:24;102444.63;;;-0.74;71.65
77013;BME280;67260;53.130;17.982;2023-03-01T07:43:51;102442.21;;;-0.65;71.42
77013;BME280;67260;53.130;17.982;2023-03-01T07:46:18;102440.09;;;-0.56;71.31
77013;BME280;67260;53.130;17.982;2023-03-01T07:48:45;102435.59;;;-0.45;71.13
77013;BME280;67260;53.130;17.982;2023-03-01T07:51:12;102434.10;;;-0.35;71.21
77013;BME280;67260;53.130;17.982;2023-03-01T07:53:39;102432.21;;;-0.24;70.78
77013;BME280;67260;53.130;17.982;2023-03-01T07:56:09;102435.36;;;-0.13;70.72
77013;BME280;67260;53.130;17.982;2023-03-01T07:58:38;102433.96;;;-0.02;70.63
77013;BME280;67260;53.130;17.982;2023-03-01T08:01:07;102433.54;;;0.07;70.69
77013;BME280;67260;53.130;17.982;2023-03-01T08:03:35;102431.42;;;0.16;70.49
77013;BME280;67260;53.130;17.982;2023-03-01T08:06:05;102427.17;;;0.22;70.10
77013;BME280;67260;53.130;17.982;2023-03-01T08:08:32;102420.23;;;0.30;70.37
77013;BME280;67260;53.130;17.982;2023-03-01T08:11:00;102419.02;;;0.38;70.33
77013;BME280;67260;53.130;17.982;2023-03-01T08:13:28;102412.84;;;0.47;70.06
77013;BME280;67260;53.130;17.982;2023-03-01T08:16:04;102419.16;;;0.57;69.96
77013;BME280;67260;53.130;17.982;2023-03-01T08:18:31;102421.36;;;0.66;70.55
77013;BME280;67260;53.130;17.982;2023-03-01T08:21:12;102427.34;;;0.74;70.86
77013;BME280;67260;53.130;17.982;2023-03-01T08:23:40;102428.77;;;0.81;70.87
77013;BME280;67260;53.130;17.982;2023-03-01T08:26:12;102429.84;;;0.86;70.93
77013;BME280;67260;53.130;17.982;2023-03-01T08:28:40;102423.33;;;0.89;71.04
77013;BME280;67260;53.130;17.982;2023-03-01T08:31:22;102428.26;;;0.94;71.02
77013;BME280;67260;53.130;17.982;2023-03-01T08:33:52;102435.30;;;1.01;70.79
77013;BME280;67260;53.130;17.982;2023-03-01T08:36:23;102437.80;;;1.05;70.75
77013;BME280;67260;53.130;17.982;2023-03-01T08:38:50;102438.55;;;1.09;70.79
77013;BME280;67260;53.130;17.982;2023-03-01T08:41:17;102434.89;;;1.14;70.75
77013;BME280;67260;53.130;17.982;2023-03-01T08:43:44;102427.30;;;1.20;71.04
77013;BME280;67260;53.130;17.982;2023-03-01T08:46:11;102422.17;;;1.29;71.26
77013;BME280;67260;53.130;17.982;2023-03-01T08:48:39;102425.46;;;1.40;71.10
77013;BME280;67260;53.130;17.982;2023-03-01T08:51:17;102427.39;;;1.52;71.27
77013;BME280;67260;53.130;17.982;2023-03-01T08:53:44;102426.85;;;1.62;71.03
77013;BME280;67260;53.130;17.982;2023-03-01T08:56:12;102423.30;;;1.71;70.84
77013;BME280;67260;53.130;17.982;2023-03-01T08:58:39;102419.89;;;1.77;70.58
77013;BME280;67260;53.130;17.982;2023-03-01T09:01:07;102423.54;;;1.82;70.49
77013;BME280;67260;53.130;17.982;2023-03-01T09:03:35;102423.98;;;1.83;70.18
77013;BME280;67260;53.130;17.982;2023-03-01T09:06:03;102422.56;;;1.86;70.73
77013;BME280;67260;53.130;17.982;2023-03-01T09:08:31;102422.77;;;1.95;70.67
77013;BME280;67260;53.130;17.982;2023-03-01T09:11:04;102418.98;;;2.05;70.56
77013;BME280;67260;53.130;17.982;2023-03-01T09:13:32;102420.62;;;2.13;70.18
77013;BME280;67260;53.130;17.982;2023-03-01T09:16:01;102421.94;;;2.19;70.31
77013;BME280;67260;53.130;17.982;2023-03-01T09:18:28;102425.23;;;2.26;70.43
77013;BME280;67260;53.130;17.982;2023-03-01T09:21:12;102427.63;;;2.35;70.45
77013;BME280;67260;53.130;17.982;2023-03-01T09:23:44;102424.23;;;2.43;70.45
77013;BME280;67260;53.130;17.982;2023-03-01T09:26:13;102423.59;;;2.51;70.50
77013;BME280;67260;53.130;17.982;2023-03-01T09:28:43;102420.15;;;2.60;70.23
77013;BME280;67260;53.130;17.982;2023-03-01T09:31:12;102417.05;;;2.69;70.19
77013;BME280;67260;53.130;17.982;2023-03-01T09:33:40;102420.16;;;2.76;70.16
77013;BME280;67260;53.130;17.982;2023-03-01T09:36:11;102414.67;;;2.82;70.18
77013;BME280;67260;53.130;17.982;2023-03-01T09:38:39;102418.02;;;2.88;69.80
77013;BME280;67260;53.130;17.982;2023-03-01T09:46:50;102406.72;;;3.04;70.38
77013;BME280;67260;53.130;17.982;2023-03-01T09:49:40;102403.77;;;3.08;70.18
77013;BME280;67260;53.130;17.982;2023-03-01T09:54:37;102400.15;;;3.21;70.23
77013;BME280;67260;53.130;17.982;2023-03-01T09:57:19;102401.61;;;3.24;70.46
77013;BME280;67260;53.130;17.982;2023-03-01T10:05:51;102395.56;;;3.41;70.85
77013;BME280;67260;53.130;17.982;2023-03-01T10:08:46;102391.05;;;3.48;70.74
77013;BME280;67260;53.130;17.982;2023-03-01T10:11:37;102388.42;;;3.56;70.53
77013;BME280;67260;53.130;17.982;2023-03-01T10:14:12;102383.98;;;3.69;70.58
77013;BME280;67260;53.130;17.982;2023-03-01T10:16:52;102382.19;;;3.80;70.37
77013;BME280;67260;53.130;17.982;2023-03-01T10:19:27;102375.83;;;3.87;70.53
77013;BME280;67260;53.130;17.982;2023-03-01T10:22:10;102373.30;;;3.92;70.61
77013;BME280;67260;53.130;17.982;2023-03-01T10:24:38;102367.39;;;3.99;70.41
77013;BME280;67260;53.130;17.982;2023-03-01T10:27:11;102369.31;;;4.05;70.28
77013;BME280;67260;53.130;17.982;2023-03-01T10:29:53;102361.62;;;4.11;70.47
77013;BME280;67260;53.130;17.982;2023-03-01T10:32:22;102359.11;;;4.16;70.06
77013;BME280;67260;53.130;17.982;2023-03-01T10:34:49;102351.11;;;4.23;70.04
77013;BME280;67260;53.130;17.982;2023-03-01T10:37:19;102346.34;;;4.30;70.11
77013;BME280;67260;53.130;17.982;2023-03-01T10:42:31;102344.75;;;4.45;69.85
77013;BME280;67260;53.130;17.982;2023-03-01T10:47:43;102340.41;;;4.55;69.18
77013;BME280;67260;53.130;17.982;2023-03-01T10:50:21;102340.52;;;4.58;69.28
77013;BME280;67260;53.130;17.982;2023-03-01T10:53:00;102342.88;;;4.62;69.31
77013;BME280;67260;53.130;17.982;2023-03-01T10:55:37;102334.84;;;4.63;69.25
77013;BME280;67260;53.130;17.982;2023-03-01T11:01:02;102327.40;;;4.72;69.16
77013;BME280;67260;53.130;17.982;2023-03-01T11:03:35;102315.66;;;4.78;68.89
77013;BME280;67260;53.130;17.982;2023-03-01T11:06:20;102311.41;;;4.83;68.81
77013;BME280;67260;53.130;17.982;2023-03-01T11:08:49;102312.27;;;4.85;68.91
77013;BME280;67260;53.130;17.982;2023-03-01T11:13:58;102314.61;;;4.95;68.60
77013;BME280;67260;53.130;17.982;2023-03-01T11:16:38;102308.92;;;5.00;68.46
77013;BME280;67260;53.130;17.982;2023-03-01T11:24:11;102303.38;;;5.17;68.72
77013;BME280;67260;53.130;17.982;2023-03-01T11:26:41;102298.75;;;5.21;68.38
77013;BME280;67260;53.130;17.982;2023-03-01T11:29:36;102293.54;;;5.27;68.51
77013;BME280;67260;53.130;17.982;2023-03-01T11:32:07;102293.13;;;5.34;68.17
77013;BME280;67260;53.130;17.982;2023-03-01T11:34:42;102293.95;;;5.38;67.73
77013;BME280;67260;53.130;17.982;2023-03-01T11:37:22;102298.12;;;5.43;67.24
77013;BME280;67260;53.130;17.982;2023-03-01T11:40:23;102290.14;;;5.49;66.80
77013;BME280;67260;53.130;17.982;2023-03-01T11:43:05;102287.95;;;5.56;67.27
77013;BME280;67260;53.130;17.982;2023-03-01T11:45:47;102289.83;;;5.63;66.96
77013;BME280;67260;53.130;17.982;2023-03-01T11:49:01;102286.78;;;5.69;66.98
77013;BME280;67260;53.130;17.982;2023-03-01T11:51:23;102281.91;;;5.77;66.87
77013;BME280;67260;53.130;17.982;2023-03-01T12:08:33;102285.05;;;6.05;65.10
77013;BME280;67260;53.130;17.982;2023-03-01T12:11:13;102289.91;;;6.07;65.11
77013;BME280;67260;53.130;17.982;2023-03-01T12:24:57;102286.18;;;6.19;64.87
77013;BME280;67260;53.130;17.982;2023-03-01T12:38:45;102282.14;;;6.34;64.68
77013;BME280;67260;53.130;17.982;2023-03-01T12:41:47;102280.14;;;6.37;64.59
77013;BME280;67260;53.130;17.982;2023-03-01T12:44:27;102277.80;;;6.39;64.97
77013;BME280;67260;53.130;17.982;2023-03-01T12:47:20;102272.05;;;6.40;65.37
77013;BME280;67260;53.130;17.982;2023-03-01T12:50:17;102264.44;;;6.41;65.14
77013;BME280;67260;53.130;17.982;2023-03-01T12:55:36;102260.65;;;6.44;64.70
77013;BME280;67260;53.130;17.982;2023-03-01T13:00:38;102260.16;;;6.51;64.85
77013;BME280;67260;53.130;17.982;2023-03-01T13:11:57;102251.45;;;6.62;64.05
77013;BME280;67260;53.130;17.982;2023-03-01T13:14:35;102251.77;;;6.64;63.63
77013;BME280;67260;53.130;17.982;2023-03-01T13:17:02;102246.77;;;6.65;63.37
77013;BME280;67260;53.130;17.982;2023-03-01T13:19:29;102247.27;;;6.67;63.69
77013;BME280;67260;53.130;17.982;2023-03-01T13:21:56;102246.70;;;6.67;63.70
77013;BME280;67260;53.130;17.982;2023-03-01T13:24:29;102244.11;;;6.68;63.30
77013;BME280;67260;53.130;17.982;2023-03-01T13:29:46;102241.30;;;6.72;63.42
77013;BME280;67260;53.130;17.982;2023-03-01T13:32:32;102243.07;;;6.74;62.59
77013;BME280;67260;53.130;17.982;2023-03-01T13:37:46;102243.60;;;6.76;62.98
77013;BME280;67260;53.130;17.982;2023-03-01T13:42:52;102236.88;;;6.80;62.57
77013;BME280;67260;53.130;17.982;2023-03-01T13:45:22;102237.54;;;6.82;62.52
77013;BME280;67260;53.130;17.982;2023-03-01T13:47:58;102238.91;;;6.86;62.34
77013;BME280;67260;53.130;17.982;2023-03-01T13:50:28;102226.27;;;6.91;62.47
77013;BME280;67260;53.130;17.982;2023-03-01T13:53:06;102222.73;;;6.97;62.57
77013;BME280;67260;53.130;17.982;2023-03-01T13:55:45;102224.39;;;7.05;62.69
77013;BME280;67260;53.130;17.982;2023-03-01T13:58:19;102223.69;;;7.14;62.31
77013;BME280;67260;53.130;17.982;2023-03-01T14:00:47;102221.19;;;7.24;61.93
77013;BME280;67260;53.130;17.982;2023-03-01T14:03:19;102218.80;;;7.32;61.87
77013;BME280;67260;53.130;17.982;2023-03-01T14:08:36;102215.11;;;7.51;61.45
77013;BME280;67260;53.130;17.982;2023-03-01T14:21:46;102199.52;;;8.04;60.71
77013;BME280;67260;53.130;17.982;2023-03-01T14:24:23;102195.48;;;8.12;60.36
77013;BME280;67260;53.130;17.982;2023-03-01T14:26:50;102190.39;;;8.19;60.21
77013;BME280;67260;53.130;17.982;2023-03-01T14:29:35;102190.91;;;8.24;60.40
77013;BME280;67260;53.130;17.982;2023-03-01T14:32:30;102188.50;;;8.32;59.86
77013;BME280;67260;53.130;17.982;2023-03-01T14:34:58;102184.56;;;8.38;59.80
77013;BME280;67260;53.130;17.982;2023-03-01T14:37:30;102185.69;;;8.42;59.17
77013;BME280;67260;53.130;17.982;2023-03-01T14:39:59;102183.79;;;8.45;59.12
77013;BME280;67260;53.130;17.982;2023-03-01T14:42:29;102181.91;;;8.48;59.23
77013;BME280;67260;53.130;17.982;2023-03-01T14:44:57;102178.94;;;8.49;59.28
77013;BME280;67260;53.130;17.982;2023-03-01T14:47:32;102179.57;;;8.50;58.90
77013;BME280;67260;53.130;17.982;2023-03-01T14:50:05;102182.31;;;8.55;59.06
77013;BME280;67260;53.130;17.982;2023-03-01T14:52:40;102179.77;;;8.61;58.84
77013;BME280;67260;53.130;17.982;2023-03-01T14:57:57;102175.14;;;8.69;58.29
77013;BME280;67260;53.130;17.982;2023-03-01T15:00:27;102176.23;;;8.72;58.10
77013;BME280;67260;53.130;17.982;2023-03-01T15:02:56;102171.32;;;8.75;58.43
77013;BME280;67260;53.130;17.982;2023-03-01T15:05:30;102162.46;;;8.77;58.35